Elizabeth, New Jersey
Current Conditions -  °F | °C
As of 10:51 PM on Monday 20 Oct 2014 (Local Time) from KEWR Reporting Station
Broken Clouds Broken Clouds  
Wind Chill: 56°   Ceiling: 25000
Heat Index: 56°   Visibility: 10mi
Dew Point: 45°   Wind: 8mph
Humidity: 67%   Direction: 180°S
Pressure: 29.98"   Gusts: NA
Location:  40.66°N, 74.21°W
Report Text: KEWR 210251Z 18007KT 10SM FEW130 BKN250 13/07 A2998 RMK AO2 SLP150 T01330072 58003
Loading
Personal Weather Stations






























Interactive Weather Map New forecast layout! Learn more

10-Day Weather Forecast

Advertisements
Track Severe Weather on mobile